createdAt,value
2022-08-18T00:00:02.905Z,84.72
2022-08-18T00:01:09.743Z,85.41
2022-08-18T00:02:16.834Z,85.71
2022-08-18T00:03:56.673Z,86.13
2022-08-18T00:05:00.807Z,85.64
2022-08-18T00:06:07.151Z,85.33
2022-08-18T00:07:15.255Z,85.45
2022-08-18T00:08:20.746Z,85.19
2022-08-18T00:09:28.991Z,85.28
2022-08-18T00:10:36.338Z,85.13
2022-08-18T00:11:44.667Z,85.35
2022-08-18T00:12:48.591Z,85.54
2022-08-18T00:13:54.305Z,85.47
2022-08-18T00:15:02.538Z,85.89
2022-08-18T00:16:07.932Z,85.81
2022-08-18T00:17:12.188Z,85.73
2022-08-18T00:18:18.223Z,85.74
2022-08-18T00:19:45.746Z,85.63
2022-08-18T00:20:49.262Z,85.68
2022-08-18T00:21:53.264Z,85.74
2022-08-18T00:22:59.069Z,85.33
2022-08-18T00:24:05.768Z,85.32
2022-08-18T00:25:12.769Z,85.86
2022-08-18T00:26:16.487Z,85.93
2022-08-18T00:27:28.573Z,86.01
2022-08-18T00:28:32.654Z,85.94
2022-08-18T00:29:37.766Z,85.73
2022-08-18T00:30:41.972Z,85.56
2022-08-18T00:31:47.332Z,85.49
2022-08-18T00:32:53.605Z,84.92
2022-08-18T00:33:59.268Z,84.96
2022-08-18T00:35:08.128Z,84.81
2022-08-18T00:36:14.170Z,84.65
2022-08-18T00:37:18.225Z,84.78
2022-08-18T00:38:24.466Z,84.69
2022-08-18T00:39:35.041Z,84.54
2022-08-18T00:40:46.182Z,85.07
2022-08-18T00:41:50.368Z,85.06
2022-08-18T00:42:57.258Z,85.42
2022-08-18T00:44:01.673Z,85.37
2022-08-18T00:45:08.598Z,84.98
2022-08-18T00:46:16.692Z,85.52
2022-08-18T00:47:41.932Z,85.58
2022-08-18T00:48:49.385Z,85.79
2022-08-18T00:49:54.526Z,85.18
2022-08-18T00:51:01.267Z,85.46
2022-08-18T00:52:06.376Z,86.23
2022-08-18T00:53:19.019Z,85.93
2022-08-18T00:54:26.190Z,86.09
2022-08-18T00:55:34.793Z,86.21
2022-08-18T00:56:43.194Z,86.21
2022-08-18T00:57:49.680Z,85.56
2022-08-18T00:58:58.237Z,85.96
2022-08-18T01:00:12.152Z,86.24
2022-08-18T01:01:33.683Z,86.80
2022-08-18T01:02:41.119Z,87.38
2022-08-18T01:03:53.340Z,87.03
2022-08-18T01:05:03.107Z,87.21
2022-08-18T01:06:11.935Z,87.06
2022-08-18T01:07:20.784Z,87.15
2022-08-18T01:08:28.490Z,87.01
2022-08-18T01:09:34.361Z,86.63
2022-08-18T01:10:42.627Z,87.16
2022-08-18T01:11:47.861Z,87.04
2022-08-18T01:12:56.706Z,87.30
2022-08-18T01:14:01.280Z,87.15
2022-08-18T01:15:07.896Z,87.13
2022-08-18T01:16:56.930Z,87.00
2022-08-18T01:18:22.780Z,87.09
2022-08-18T01:19:55.174Z,87.05
2022-08-18T01:21:26.969Z,87.00
2022-08-18T01:22:35.762Z,86.97
2022-08-18T01:23:41.658Z,86.66
2022-08-18T01:25:03.890Z,87.19
2022-08-18T01:26:10.017Z,87.13
2022-08-18T01:27:18.423Z,86.81
2022-08-18T01:28:24.788Z,86.86
2022-08-18T01:29:30.398Z,87.18
2022-08-18T01:30:47.493Z,87.10
2022-08-18T01:31:56.689Z,87.66
2022-08-18T01:33:03.920Z,87.02
2022-08-18T01:34:10.418Z,87.07
2022-08-18T01:35:17.644Z,87.08
2022-08-18T01:36:23.482Z,87.25
2022-08-18T01:37:29.079Z,87.19
2022-08-18T01:38:33.258Z,87.05
2022-08-18T01:41:22.377Z,86.91
2022-08-18T01:41:26.676Z,87.06
2022-08-18T01:42:29.450Z,86.16
2022-08-18T01:43:35.327Z,86.76
2022-08-18T01:44:41.990Z,86.76
2022-08-18T01:45:47.900Z,87.02
2022-08-18T01:46:53.944Z,86.80
2022-08-18T01:48:00.081Z,86.84
2022-08-18T01:49:04.497Z,86.94
2022-08-18T01:50:11.413Z,87.25
2022-08-18T01:51:16.286Z,86.90
2022-08-18T01:52:23.258Z,86.59
2022-08-18T01:53:27.667Z,86.85
2022-08-18T01:54:33.143Z,86.71
2022-08-18T01:55:41.425Z,86.42
2022-08-18T01:56:48.816Z,87.02
2022-08-18T01:57:53.114Z,87.01
2022-08-18T01:58:58.696Z,87.12
2022-08-18T02:00:03.151Z,86.70
2022-08-18T02:01:17.450Z,87.06
2022-08-18T02:02:25.154Z,87.04
2022-08-18T02:03:32.899Z,87.14
2022-08-18T02:04:37.734Z,87.24
2022-08-18T02:05:46.369Z,87.19
2022-08-18T02:06:51.923Z,87.28
2022-08-18T02:07:57.413Z,86.83
2022-08-18T02:09:01.579Z,86.79
2022-08-18T02:10:08.038Z,86.73
2022-08-18T02:11:17.831Z,86.79
2022-08-18T02:12:24.365Z,86.51
2022-08-18T02:13:28.771Z,87.10
2022-08-18T02:14:33.831Z,87.26
2022-08-18T02:15:37.566Z,87.64
2022-08-18T02:16:46.768Z,87.54
2022-08-18T02:17:50.958Z,87.57
2022-08-18T02:18:56.767Z,87.97
2022-08-18T02:20:00.937Z,88.06
2022-08-18T02:21:11.997Z,88.43
2022-08-18T02:22:20.306Z,88.05
2022-08-18T02:23:26.768Z,88.30
2022-08-18T02:24:31.789Z,88.11
2022-08-18T02:25:36.791Z,88.29
2022-08-18T02:26:43.961Z,88.28
2022-08-18T02:27:49.240Z,88.66
2022-08-18T02:28:53.845Z,88.45
2022-08-18T02:30:02.993Z,88.87
2022-08-18T02:31:08.640Z,88.94
2022-08-18T02:32:16.720Z,88.63
2022-08-18T02:33:20.486Z,88.50
2022-08-18T02:34:25.971Z,88.47
2022-08-18T02:35:30.489Z,89.00
2022-08-18T02:36:35.724Z,89.16
2022-08-18T02:37:42.262Z,89.66
2022-08-18T02:39:00.225Z,89.86
2022-08-18T02:40:05.227Z,90.07
2022-08-18T02:41:11.869Z,90.19
2022-08-18T02:42:16.869Z,90.26
2022-08-18T02:43:21.352Z,90.28
2022-08-18T02:44:24.714Z,90.00
2022-08-18T02:45:29.242Z,89.52
2022-08-18T02:46:32.596Z,89.46
2022-08-18T02:47:37.043Z,89.33
2022-08-18T02:48:40.389Z,89.15
2022-08-18T02:49:44.710Z,89.68
2022-08-18T02:50:48.131Z,89.00
2022-08-18T02:51:53.022Z,89.03
2022-08-18T02:52:56.405Z,89.29
2022-08-18T02:54:00.934Z,89.79
2022-08-18T02:55:04.907Z,89.52
2022-08-18T02:56:40.263Z,89.25
2022-08-18T02:57:49.708Z,89.20
2022-08-18T02:58:54.961Z,88.67
2022-08-18T02:59:59.771Z,88.95
2022-08-18T03:01:03.074Z,88.95
2022-08-18T03:02:08.603Z,88.89
2022-08-18T03:03:11.968Z,88.91
2022-08-18T03:04:22.925Z,89.33
2022-08-18T03:05:30.424Z,88.88
2022-08-18T03:06:38.324Z,89.07
2022-08-18T03:07:41.602Z,89.34
2022-08-18T03:08:49.079Z,89.38
2022-08-18T03:09:53.312Z,90.00
2022-08-18T03:10:56.507Z,89.63
2022-08-18T03:12:01.274Z,89.75
2022-08-18T03:13:06.278Z,89.75
2022-08-18T03:14:11.430Z,89.75
2022-08-18T03:15:15.009Z,89.97
2022-08-18T03:16:19.853Z,89.83
2022-08-18T03:17:23.324Z,89.90
2022-08-18T03:18:27.651Z,89.99
2022-08-18T03:19:30.948Z,90.06
2022-08-18T03:20:35.410Z,89.60
2022-08-18T03:21:38.862Z,89.46
2022-08-18T03:22:44.109Z,89.72
2022-08-18T03:24:00.907Z,89.59
2022-08-18T03:25:06.767Z,89.69
2022-08-18T03:26:11.951Z,89.58
2022-08-18T03:27:16.179Z,89.70
2022-08-18T03:28:21.074Z,89.62
2022-08-18T03:29:29.533Z,89.40
2022-08-18T03:30:35.410Z,89.19
2022-08-18T03:31:40.508Z,89.52
2022-08-18T03:32:45.659Z,89.91
2022-08-18T03:33:50.501Z,89.83
2022-08-18T03:34:53.719Z,89.38
2022-08-18T03:35:57.991Z,89.43
2022-08-18T03:37:02.329Z,89.53
2022-08-18T03:38:06.159Z,89.92
2022-08-18T03:39:12.354Z,90.43
2022-08-18T03:40:15.587Z,90.81
2022-08-18T03:41:44.495Z,90.93
2022-08-18T03:42:47.568Z,90.92
2022-08-18T03:43:52.851Z,90.65
2022-08-18T03:44:57.178Z,90.76
2022-08-18T03:46:01.879Z,90.81
2022-08-18T03:47:09.493Z,90.62
2022-08-18T03:48:12.783Z,90.74
2022-08-18T03:49:18.321Z,90.51
2022-08-18T03:50:26.083Z,90.11
2022-08-18T03:51:32.390Z,90.37
2022-08-18T03:52:41.644Z,90.64
2022-08-18T03:53:45.480Z,90.59
2022-08-18T03:54:49.623Z,90.51
2022-08-18T03:55:52.631Z,91.02
2022-08-18T03:56:56.819Z,91.25
2022-08-18T03:58:03.032Z,91.46
2022-08-18T03:59:10.101Z,91.59
2022-08-18T04:00:13.558Z,91.96
2022-08-18T04:01:26.341Z,91.79
2022-08-18T04:02:30.525Z,91.51
2022-08-18T04:03:34.752Z,91.39
2022-08-18T04:04:42.910Z,91.74
2022-08-18T04:05:47.889Z,91.82
2022-08-18T04:06:55.611Z,91.59
2022-08-18T04:07:59.170Z,91.80
2022-08-18T04:09:06.372Z,91.63
2022-08-18T04:10:17.027Z,91.55
2022-08-18T04:11:23.970Z,92.09
2022-08-18T04:12:27.230Z,92.22
2022-08-18T04:13:36.445Z,92.26
2022-08-18T04:14:42.369Z,92.43
2022-08-18T04:15:46.459Z,92.29
2022-08-18T04:16:49.850Z,92.53
2022-08-18T04:18:06.012Z,92.25
2022-08-18T04:19:09.895Z,91.95
2022-08-18T04:20:14.978Z,91.86
2022-08-18T04:21:18.705Z,91.99
2022-08-18T04:22:22.961Z,92.28
2022-08-18T04:23:26.229Z,92.66
2022-08-18T04:24:33.017Z,92.77
2022-08-18T04:25:36.534Z,92.48
2022-08-18T04:26:43.401Z,92.43
2022-08-18T04:27:46.600Z,92.49
2022-08-18T04:28:50.770Z,92.44
2022-08-18T04:29:56.994Z,92.72
2022-08-18T04:31:09.103Z,92.85
2022-08-18T04:32:13.627Z,92.96
2022-08-18T04:33:17.861Z,93.11
2022-08-18T04:34:23.020Z,93.48
2022-08-18T04:35:29.341Z,93.29
2022-08-18T04:36:34.768Z,93.22
2022-08-18T04:37:50.123Z,93.31
2022-08-18T04:38:54.245Z,93.72
2022-08-18T04:40:01.115Z,94.17
2022-08-18T04:41:04.699Z,94.82
2022-08-18T04:42:09.148Z,94.36
2022-08-18T04:43:15.480Z,94.43
2022-08-18T04:44:20.487Z,94.29
2022-08-18T04:45:25.208Z,94.92
2022-08-18T04:46:30.668Z,94.82
2022-08-18T04:47:34.826Z,94.81
2022-08-18T04:48:40.889Z,95.18
2022-08-18T04:49:44.857Z,95.39
2022-08-18T04:50:49.272Z,95.47
2022-08-18T04:52:34.496Z,95.45
2022-08-18T04:53:47.208Z,95.16
2022-08-18T04:54:51.591Z,95.44
2022-08-18T04:55:56.370Z,95.47
2022-08-18T04:57:00.751Z,95.57
2022-08-18T04:58:04.998Z,95.80
2022-08-18T04:59:12.847Z,95.94
2022-08-18T05:00:17.450Z,96.41
2022-08-18T05:01:23.966Z,96.45
2022-08-18T05:02:28.326Z,96.29
2022-08-18T05:03:31.610Z,96.43
2022-08-18T05:04:36.793Z,96.59
2022-08-18T05:05:40.203Z,97.04
2022-08-18T05:06:45.809Z,96.78
2022-08-18T05:07:49.331Z,96.77
2022-08-18T05:08:54.628Z,97.25
2022-08-18T05:09:58.030Z,97.09
2022-08-18T05:11:04.316Z,97.25
2022-08-18T05:12:09.141Z,97.08
2022-08-18T05:13:16.921Z,97.29
2022-08-18T05:14:20.550Z,97.21
2022-08-18T05:15:28.502Z,97.42
2022-08-18T05:16:36.181Z,97.44
2022-08-18T05:17:50.855Z,97.72
2022-08-18T05:18:55.034Z,97.80
2022-08-18T05:20:01.898Z,98.14
2022-08-18T05:21:14.493Z,98.63
2022-08-18T05:22:28.734Z,98.74
2022-08-18T05:23:36.447Z,98.96
2022-08-18T05:24:40.141Z,98.90
2022-08-18T05:25:44.390Z,98.81
2022-08-18T05:26:49.043Z,98.78
2022-08-18T05:27:56.348Z,98.72
2022-08-18T05:29:17.798Z,98.51
2022-08-18T05:30:23.621Z,98.35
2022-08-18T05:31:29.918Z,97.97
2022-08-18T05:32:46.866Z,97.92
2022-08-18T05:33:55.989Z,97.99
2022-08-18T05:34:59.978Z,98.25
2022-08-18T05:36:06.239Z,98.44
2022-08-18T05:37:20.708Z,98.35
2022-08-18T05:38:35.017Z,98.44
2022-08-18T05:39:44.602Z,98.21
2022-08-18T05:41:01.021Z,97.76
2022-08-18T05:42:20.327Z,97.18
2022-08-18T05:43:24.868Z,96.72
2022-08-18T05:44:29.852Z,95.94
2022-08-18T05:45:35.051Z,95.32
2022-08-18T05:46:45.716Z,94.85
2022-08-18T05:47:50.923Z,94.64
2022-08-18T05:48:55.568Z,93.98
2022-08-18T05:50:04.940Z,93.42
2022-08-18T05:51:19.039Z,92.34
2022-08-18T05:52:26.373Z,91.62
2022-08-18T05:53:44.730Z,90.94
2022-08-18T05:55:08.366Z,89.55
2022-08-18T05:56:31.019Z,89.04
2022-08-18T05:57:40.871Z,88.28
2022-08-18T05:58:48.811Z,87.75
2022-08-18T05:59:54.516Z,87.16
2022-08-18T06:01:01.812Z,86.15
2022-08-18T06:02:10.488Z,84.90
2022-08-18T06:03:21.064Z,84.01
2022-08-18T06:04:35.096Z,83.34
2022-08-18T06:05:45.033Z,82.69
2022-08-18T06:06:51.352Z,81.52
2022-08-18T06:07:57.550Z,81.03
2022-08-18T06:09:06.273Z,79.76
2022-08-18T06:10:11.938Z,79.75
2022-08-18T06:11:17.415Z,79.03
2022-08-18T06:12:29.952Z,78.51
2022-08-18T06:13:39.511Z,78.10
2022-08-18T06:14:44.252Z,77.82
2022-08-18T06:15:54.627Z,76.71
2022-08-18T06:17:03.798Z,75.63
2022-08-18T06:18:21.358Z,75.04
2022-08-18T06:19:36.541Z,74.20
2022-08-18T06:20:50.890Z,74.07
2022-08-18T06:22:02.768Z,73.89
2022-08-18T06:23:18.970Z,73.24
2022-08-18T06:24:30.104Z,73.32
2022-08-18T06:25:38.560Z,72.92
2022-08-18T06:26:49.017Z,72.48
2022-08-18T06:27:56.866Z,72.03
2022-08-18T06:29:10.080Z,71.30
2022-08-18T06:30:17.958Z,70.74
2022-08-18T06:31:29.484Z,70.14
2022-08-18T06:32:49.198Z,69.89
2022-08-18T06:34:06.022Z,69.79
2022-08-18T06:35:21.192Z,69.42
2022-08-18T06:36:33.447Z,68.85
2022-08-18T06:38:12.829Z,68.89
2022-08-18T06:39:22.671Z,69.05
2022-08-18T06:40:25.854Z,68.54
2022-08-18T06:41:41.618Z,68.00
2022-08-18T06:42:48.789Z,67.94
2022-08-18T06:44:00.490Z,66.87
2022-08-18T06:45:08.661Z,67.08
2022-08-18T06:46:18.667Z,66.71
2022-08-18T06:47:30.379Z,66.10
2022-08-18T06:48:40.509Z,65.89
2022-08-18T06:49:51.590Z,64.72
2022-08-18T06:51:01.120Z,64.10
2022-08-18T06:52:23.784Z,61.70
2022-08-18T06:53:51.849Z,63.90
2022-08-18T06:54:58.248Z,65.08
2022-08-18T06:56:26.224Z,61.86
2022-08-18T06:57:34.901Z,64.21
2022-08-18T06:58:38.250Z,63.49
2022-08-18T06:59:42.652Z,63.20
2022-08-18T07:00:56.685Z,62.80
2022-08-18T07:02:03.110Z,62.92
2022-08-18T07:03:08.319Z,62.60
2022-08-18T07:04:32.616Z,60.96
2022-08-18T07:05:39.299Z,62.00
2022-08-18T07:06:42.359Z,61.83
2022-08-18T07:07:46.896Z,61.27
2022-08-18T07:08:51.744Z,60.20
2022-08-18T07:09:56.995Z,60.35
2022-08-18T07:11:14.346Z,59.41
2022-08-18T07:12:26.717Z,59.92
2022-08-18T07:13:40.680Z,59.77
2022-08-18T07:14:49.198Z,59.47
2022-08-18T07:15:55.393Z,58.44
2022-08-18T07:17:09.019Z,56.93
2022-08-18T07:18:14.942Z,57.27
2022-08-18T07:19:20.968Z,57.57
2022-08-18T07:20:26.711Z,57.65
2022-08-18T07:21:34.284Z,57.52
2022-08-18T07:22:56.316Z,55.74
2022-08-18T07:24:23.247Z,57.01
2022-08-18T07:25:28.069Z,56.10
2022-08-18T07:26:47.871Z,55.92
2022-08-18T07:27:56.514Z,55.37
2022-08-18T07:29:14.892Z,54.79
2022-08-18T07:30:30.719Z,53.09
2022-08-18T07:31:39.756Z,54.51
2022-08-18T07:32:47.461Z,54.61
2022-08-18T07:33:56.483Z,54.41
2022-08-18T07:35:03.830Z,53.72
2022-08-18T07:36:10.109Z,53.54
2022-08-18T07:37:22.845Z,52.52
2022-08-18T07:38:42.523Z,52.37
2022-08-18T07:39:51.241Z,52.67
2022-08-18T07:40:58.454Z,52.43
2022-08-18T07:42:04.736Z,52.50
2022-08-18T07:43:16.778Z,53.10
2022-08-18T07:44:24.836Z,52.84
2022-08-18T07:45:51.609Z,52.98
2022-08-18T07:46:59.889Z,52.70
2022-08-18T07:48:27.374Z,52.74
2022-08-18T07:49:36.080Z,51.98
2022-08-18T07:50:58.238Z,50.67
2022-08-18T07:52:16.383Z,50.64
2022-08-18T07:53:42.084Z,50.85
2022-08-18T07:54:54.606Z,50.36
2022-08-18T07:56:03.352Z,51.20
2022-08-18T07:57:19.632Z,51.25
2022-08-18T07:58:28.922Z,51.35
2022-08-18T07:59:38.099Z,50.72
2022-08-18T08:01:05.234Z,49.75
2022-08-18T08:02:22.546Z,49.23
2022-08-18T08:03:32.498Z,49.65
2022-08-18T08:04:41.135Z,49.29
2022-08-18T08:05:51.765Z,48.46
2022-08-18T08:07:23.526Z,49.17
2022-08-18T08:08:32.608Z,49.34
2022-08-18T08:09:51.750Z,49.08
2022-08-18T08:11:09.508Z,49.22
2022-08-18T08:12:18.617Z,48.90
2022-08-18T08:13:51.326Z,49.09
2022-08-18T08:14:56.123Z,48.75
2022-08-18T08:16:04.847Z,48.41
2022-08-18T08:17:17.587Z,48.21
2022-08-18T08:18:31.758Z,48.18
2022-08-18T08:20:08.695Z,47.69
2022-08-18T08:21:17.807Z,48.61
2022-08-18T08:22:24.826Z,47.70
2022-08-18T08:23:32.435Z,47.21
2022-08-18T08:24:43.091Z,46.01
2022-08-18T08:25:57.200Z,46.91
2022-08-18T08:27:07.034Z,46.77
2022-08-18T08:28:22.113Z,46.55
2022-08-18T08:29:38.282Z,47.07
2022-08-18T08:30:48.577Z,47.46
2022-08-18T08:31:58.579Z,47.48
2022-08-18T08:33:10.076Z,47.56
2022-08-18T08:34:17.593Z,47.25
2022-08-18T08:35:48.561Z,46.72
2022-08-18T08:36:50.269Z,46.43
2022-08-18T08:38:08.230Z,46.77
2022-08-18T08:39:27.002Z,45.75
2022-08-18T08:40:38.488Z,45.57
2022-08-18T08:41:53.416Z,46.19
2022-08-18T08:43:20.708Z,45.65
2022-08-18T08:44:30.962Z,45.12
2022-08-18T08:45:38.267Z,45.12
2022-08-18T08:46:46.749Z,45.32
2022-08-18T08:48:09.412Z,44.83
2022-08-18T08:49:23.461Z,44.69
2022-08-18T08:50:29.901Z,45.25
2022-08-18T08:51:37.953Z,44.76
2022-08-18T08:52:45.495Z,44.43
2022-08-18T08:53:54.025Z,44.57
2022-08-18T08:55:02.914Z,45.17
2022-08-18T08:56:13.007Z,44.27
2022-08-18T08:57:18.248Z,44.08
2022-08-18T08:58:31.578Z,43.39
2022-08-18T08:59:39.808Z,43.92
2022-08-18T09:00:44.760Z,43.59
2022-08-18T09:01:55.444Z,43.94
2022-08-18T09:03:13.633Z,43.62
2022-08-18T09:04:24.218Z,43.55
2022-08-18T09:05:30.711Z,43.42
2022-08-18T09:06:44.419Z,42.85
2022-08-18T09:08:03.680Z,42.83
2022-08-18T09:09:19.368Z,43.98
2022-08-18T09:10:44.098Z,42.56
2022-08-18T09:12:12.170Z,43.44
2022-08-18T09:13:35.169Z,43.31
2022-08-18T09:15:11.568Z,42.63
2022-08-18T09:16:22.758Z,42.97
2022-08-18T09:17:50.897Z,42.73
2022-08-18T09:19:26.401Z,42.74
2022-08-18T09:20:48.607Z,42.45
2022-08-18T09:21:59.510Z,42.84
2022-08-18T09:23:06.749Z,42.77
2022-08-18T09:24:23.161Z,42.46
2022-08-18T09:25:48.133Z,42.52
2022-08-18T09:27:16.532Z,42.41
2022-08-18T09:28:21.767Z,43.03
2022-08-18T09:29:29.482Z,42.84
2022-08-18T09:30:47.445Z,42.61
2022-08-18T09:32:32.971Z,41.60
2022-08-18T09:33:57.613Z,42.19
2022-08-18T09:35:44.898Z,41.36
2022-08-18T09:37:03.852Z,42.17
2022-08-18T09:38:29.963Z,42.13
2022-08-18T09:39:55.114Z,42.30
2022-08-18T09:41:34.440Z,42.04
2022-08-18T09:44:12.083Z,42.23
2022-08-18T09:46:00.109Z,41.43
2022-08-18T09:47:04.360Z,41.69
2022-08-18T09:48:32.535Z,40.66
2022-08-18T09:49:51.108Z,41.09
2022-08-18T09:50:37.004Z,42.14
2022-08-18T09:51:01.652Z,41.74
2022-08-18T09:52:59.163Z,40.90
2022-08-18T09:54:21.137Z,40.88
2022-08-18T09:56:00.553Z,40.19
2022-08-18T09:57:24.759Z,40.49
2022-08-18T09:59:02.879Z,40.35
2022-08-18T10:00:29.497Z,39.91
2022-08-18T10:01:40.589Z,40.15
2022-08-18T10:03:14.580Z,39.00
2022-08-18T10:04:34.391Z,39.61
2022-08-18T10:05:37.582Z,40.36
2022-08-18T10:06:42.982Z,40.30
2022-08-18T10:07:53.753Z,39.53
2022-08-18T10:09:36.417Z,38.85
2022-08-18T10:11:00.464Z,39.84
2022-08-18T10:12:20.791Z,39.50
2022-08-18T10:13:29.900Z,39.70
2022-08-18T10:15:04.432Z,39.40
2022-08-18T10:16:17.310Z,39.85
2022-08-18T10:17:32.870Z,39.55
2022-08-18T10:18:53.037Z,39.90
2022-08-18T10:20:01.278Z,40.01
2022-08-18T10:21:12.909Z,39.86
2022-08-18T10:22:37.030Z,39.12
2022-08-18T10:24:14.704Z,39.13
2022-08-18T10:25:39.740Z,37.79
2022-08-18T10:27:11.069Z,38.09
2022-08-18T10:28:50.171Z,38.95
2022-08-18T10:29:56.398Z,39.57
2022-08-18T10:31:10.115Z,38.94
2022-08-18T10:32:38.570Z,38.99
2022-08-18T10:34:16.895Z,38.86
2022-08-18T10:35:57.678Z,39.09
2022-08-18T10:37:06.355Z,39.12
2022-08-18T10:38:13.239Z,39.11
2022-08-18T10:39:23.554Z,39.39
2022-08-18T10:40:27.203Z,39.55
2022-08-18T10:41:33.419Z,39.05
2022-08-18T10:42:42.108Z,39.39
2022-08-18T10:43:55.804Z,39.26
2022-08-18T10:45:09.651Z,38.79
2022-08-18T10:46:24.660Z,39.00
2022-08-18T10:47:33.462Z,39.80
2022-08-18T10:48:40.254Z,39.32
2022-08-18T10:49:50.640Z,38.94
2022-08-18T10:50:58.878Z,38.72
2022-08-18T10:52:18.096Z,39.09
2022-08-18T10:53:44.466Z,39.17
2022-08-18T10:55:23.271Z,38.94
2022-08-18T10:56:33.769Z,39.71
2022-08-18T10:57:47.063Z,39.30
2022-08-18T10:59:02.163Z,39.33
2022-08-18T11:00:10.821Z,39.56
2022-08-18T11:01:32.919Z,39.45
2022-08-18T11:03:39.913Z,39.22
2022-08-18T11:04:38.792Z,39.32
2022-08-18T11:05:43.157Z,39.83
2022-08-18T11:06:50.819Z,39.77
2022-08-18T11:08:00.811Z,40.36
2022-08-18T11:09:04.150Z,40.27
2022-08-18T11:10:58.078Z,39.65
2022-08-18T11:11:52.997Z,40.69
2022-08-18T11:13:09.831Z,40.04
2022-08-18T11:14:35.793Z,39.82
2022-08-18T11:15:50.614Z,39.80
2022-08-18T11:17:02.668Z,38.72
2022-08-18T11:18:18.620Z,38.35
2022-08-18T11:19:25.072Z,39.07
2022-08-18T11:20:31.679Z,38.64
2022-08-18T11:21:41.962Z,38.79
2022-08-18T11:22:55.527Z,39.20
2022-08-18T11:24:07.232Z,38.61
2022-08-18T11:25:24.081Z,38.12
2022-08-18T11:26:31.381Z,38.32
2022-08-18T11:27:36.982Z,38.25
2022-08-18T11:28:45.349Z,38.01
2022-08-18T11:29:50.158Z,38.11
2022-08-18T11:30:56.377Z,38.17
2022-08-18T11:32:10.994Z,37.31
2022-08-18T11:34:45.540Z,37.48
2022-08-18T11:35:58.779Z,36.69
2022-08-18T11:37:03.997Z,37.00
2022-08-18T11:38:23.285Z,36.69
2022-08-18T11:39:37.612Z,36.63
2022-08-18T11:42:15.944Z,36.77
2022-08-18T11:43:29.752Z,36.87
2022-08-18T11:44:42.483Z,37.09
2022-08-18T11:45:54.330Z,36.51
2022-08-18T11:47:14.770Z,35.84
2022-08-18T11:48:21.487Z,36.65
2022-08-18T11:49:34.079Z,36.51
2022-08-18T11:50:54.322Z,36.20
2022-08-18T11:52:02.356Z,36.97
2022-08-18T11:53:19.129Z,36.42
2022-08-18T11:54:50.666Z,35.53
2022-08-18T11:56:13.529Z,36.47
2022-08-18T11:57:46.527Z,36.07
2022-08-18T11:58:55.520Z,36.97
2022-08-18T12:01:41.925Z,35.21
2022-08-18T12:02:47.135Z,35.84
2022-08-18T12:03:51.524Z,35.77
2022-08-18T12:05:03.062Z,35.43
2022-08-18T12:06:20.303Z,34.91
2022-08-18T12:07:30.797Z,35.53
2022-08-18T12:10:26.260Z,34.67
2022-08-18T12:11:34.418Z,35.65
2022-08-18T12:12:46.707Z,35.20
2022-08-18T12:14:31.245Z,34.98
2022-08-18T12:15:46.689Z,35.32
2022-08-18T12:16:53.942Z,35.43
2022-08-18T12:17:58.888Z,35.23
2022-08-18T12:19:05.415Z,34.87
2022-08-18T12:20:16.430Z,35.21
2022-08-18T12:21:19.469Z,34.63
2022-08-18T12:22:28.081Z,35.25
2022-08-18T12:23:38.827Z,34.57
2022-08-18T12:24:54.962Z,34.59
2022-08-18T12:25:59.590Z,34.58
2022-08-18T12:28:28.960Z,35.08
2022-08-18T12:29:43.387Z,34.87
2022-08-18T12:30:48.518Z,35.42
2022-08-18T12:32:00.677Z,34.36
2022-08-18T12:33:12.059Z,34.06
2022-08-18T12:34:17.991Z,34.26
2022-08-18T12:35:28.382Z,34.26
2022-08-18T12:36:32.784Z,34.81
2022-08-18T12:39:02.770Z,34.27
2022-08-18T12:40:10.369Z,34.00
2022-08-18T12:41:18.611Z,33.52
2022-08-18T12:42:27.397Z,33.35
2022-08-18T12:43:32.116Z,33.71
2022-08-18T12:44:35.431Z,33.42
2022-08-18T12:45:40.531Z,33.17
2022-08-18T12:46:58.265Z,32.68
2022-08-18T12:49:29.668Z,33.27
2022-08-18T12:50:36.151Z,33.00
2022-08-18T12:51:50.335Z,33.68
2022-08-18T12:52:54.431Z,33.26
2022-08-18T12:54:00.432Z,33.82
2022-08-18T12:55:05.454Z,33.30
2022-08-18T12:56:13.737Z,33.03
2022-08-18T12:58:47.740Z,32.94
2022-08-18T12:59:52.436Z,33.04
2022-08-18T13:01:00.898Z,33.30
2022-08-18T13:02:07.586Z,32.96
2022-08-18T13:03:13.813Z,33.18
2022-08-18T13:04:18.514Z,33.33
2022-08-18T13:05:27.603Z,33.04
2022-08-18T13:06:34.222Z,33.39
2022-08-18T13:07:38.708Z,33.33
2022-08-18T13:08:48.044Z,32.71
2022-08-18T13:09:54.658Z,32.87
2022-08-18T13:11:15.194Z,32.69
2022-08-18T13:12:27.377Z,32.42
2022-08-18T13:13:31.238Z,32.36
2022-08-18T13:14:35.941Z,32.42
2022-08-18T13:15:39.672Z,32.11
2022-08-18T13:16:58.750Z,32.54
2022-08-18T13:18:03.084Z,32.46
2022-08-18T13:19:36.606Z,32.56
2022-08-18T13:20:41.248Z,32.95
2022-08-18T13:21:49.564Z,32.93
2022-08-18T13:22:52.800Z,33.08
2022-08-18T13:23:58.028Z,33.43
2022-08-18T13:25:05.470Z,32.88
2022-08-18T13:26:11.294Z,33.46
2022-08-18T13:27:18.596Z,32.92
2022-08-18T13:28:36.230Z,32.32
2022-08-18T13:29:58.627Z,32.97
2022-08-18T13:31:03.461Z,32.85
2022-08-18T13:32:09.771Z,32.35
2022-08-18T13:33:35.171Z,32.31
2022-08-18T13:34:41.118Z,32.06
2022-08-18T13:35:54.150Z,32.52
2022-08-18T13:36:58.660Z,32.54
2022-08-18T13:38:06.555Z,32.23
2022-08-18T13:39:22.512Z,32.38
2022-08-18T13:40:29.488Z,32.89
2022-08-18T13:41:33.556Z,32.74
2022-08-18T13:42:50.815Z,33.09
2022-08-18T13:43:54.436Z,33.57
2022-08-18T13:45:25.027Z,33.03
2022-08-18T13:46:30.001Z,33.16
2022-08-18T13:47:38.321Z,33.25
2022-08-18T13:48:42.909Z,33.29
2022-08-18T13:49:58.165Z,33.20
2022-08-18T13:51:05.625Z,33.24
2022-08-18T13:52:33.174Z,33.14
2022-08-18T13:53:50.395Z,33.27
2022-08-18T13:54:54.797Z,33.17
2022-08-18T13:56:00.183Z,32.99
2022-08-18T13:57:03.649Z,32.92
2022-08-18T13:58:17.582Z,33.48
2022-08-18T13:59:27.322Z,32.97
2022-08-18T14:00:31.419Z,32.91
2022-08-18T14:01:44.491Z,33.05
2022-08-18T14:02:57.434Z,33.02
2022-08-18T14:04:01.471Z,32.80
2022-08-18T14:05:07.730Z,32.63
2022-08-18T14:06:13.330Z,32.42
2022-08-18T14:07:27.380Z,32.70
2022-08-18T14:08:33.763Z,32.31
2022-08-18T14:09:38.566Z,32.24
2022-08-18T14:10:41.790Z,31.96
2022-08-18T14:11:51.105Z,32.34
2022-08-18T14:12:57.751Z,32.32
2022-08-18T14:14:01.817Z,32.96
2022-08-18T14:15:08.909Z,32.73
2022-08-18T14:16:18.611Z,32.94
2022-08-18T14:17:24.580Z,32.70
2022-08-18T14:18:31.174Z,32.38
2022-08-18T14:19:52.502Z,32.61
2022-08-18T14:21:14.858Z,32.57
2022-08-18T14:22:38.448Z,33.07
2022-08-18T14:24:02.944Z,33.27
2022-08-18T14:25:25.266Z,33.02
2022-08-18T14:26:50.031Z,32.79
2022-08-18T14:27:56.958Z,33.01
2022-08-18T14:29:01.391Z,32.55
2022-08-18T14:30:13.804Z,32.79
2022-08-18T14:31:20.787Z,32.75
2022-08-18T14:32:30.054Z,33.04
2022-08-18T14:33:51.659Z,32.88
2022-08-18T14:35:00.535Z,33.17
2022-08-18T14:36:09.489Z,33.36
2022-08-18T14:37:13.342Z,33.70
2022-08-18T14:38:19.099Z,33.88
2022-08-18T14:39:22.158Z,34.41
2022-08-18T14:40:28.053Z,33.96
2022-08-18T14:41:36.246Z,34.44
2022-08-18T14:42:54.063Z,34.62
2022-08-18T14:44:12.290Z,34.09
2022-08-18T14:45:27.720Z,34.31
2022-08-18T14:46:38.388Z,34.28
2022-08-18T14:47:44.577Z,34.72
2022-08-18T14:48:48.801Z,35.03
2022-08-18T14:49:51.928Z,34.99
2022-08-18T14:50:58.948Z,34.89
2022-08-18T14:52:03.675Z,35.14
2022-08-18T14:53:15.145Z,35.43
2022-08-18T14:54:20.033Z,35.54
2022-08-18T14:55:24.434Z,35.46
2022-08-18T14:56:29.857Z,35.43
2022-08-18T14:57:37.858Z,34.84
2022-08-18T14:58:41.230Z,35.10
2022-08-18T14:59:46.954Z,34.98
2022-08-18T15:00:54.228Z,35.09
2022-08-18T15:02:00.909Z,34.96
2022-08-18T15:03:07.716Z,34.65
2022-08-18T15:04:18.327Z,34.34
2022-08-18T15:05:24.367Z,34.52
2022-08-18T15:06:27.889Z,34.39
2022-08-18T15:07:32.719Z,34.50
2022-08-18T15:08:38.936Z,34.37
2022-08-18T15:09:47.239Z,34.60
2022-08-18T15:10:53.007Z,34.72
2022-08-18T15:11:56.766Z,35.01
2022-08-18T15:13:01.983Z,34.91
2022-08-18T15:14:05.300Z,35.30
2022-08-18T15:15:17.745Z,35.73
2022-08-18T15:16:22.721Z,35.53
2022-08-18T15:17:38.290Z,35.85
2022-08-18T15:18:42.742Z,35.58
2022-08-18T15:19:58.517Z,35.15
2022-08-18T15:21:35.047Z,35.28
2022-08-18T15:23:01.132Z,35.22
2022-08-18T15:24:26.268Z,35.41